sensor_id;sensor_type;location;lat;lon;timestamp;P1;durP1;ratioP1;P2;durP2;ratioP2
12363;SDS011;6246;50.826;4.712;2023-03-05T00:01:28;20.70;;;16.43;;
12363;SDS011;6246;50.826;4.712;2023-03-05T00:03:55;21.07;;;16.37;;
12363;SDS011;6246;50.826;4.712;2023-03-05T00:06:22;22.37;;;16.80;;
12363;SDS011;6246;50.826;4.712;2023-03-05T00:08:48;21.83;;;15.87;;
12363;SDS011;6246;50.826;4.712;2023-03-05T00:11:15;20.27;;;14.67;;
12363;SDS011;6246;50.826;4.712;2023-03-05T00:13:41;21.00;;;15.00;;
12363;SDS011;6246;50.826;4.712;2023-03-05T00:16:09;18.13;;;14.07;;
12363;SDS011;6246;50.826;4.712;2023-03-05T00:18:36;18.20;;;13.90;;
12363;SDS011;6246;50.826;4.712;2023-03-05T00:21:02;17.60;;;13.77;;
12363;SDS011;6246;50.826;4.712;2023-03-05T00:23:28;17.30;;;13.67;;
12363;SDS011;6246;50.826;4.712;2023-03-05T00:25:54;16.43;;;12.40;;
12363;SDS011;6246;50.826;4.712;2023-03-05T00:28:20;16.40;;;12.77;;
12363;SDS011;6246;50.826;4.712;2023-03-05T00:30:46;15.93;;;12.10;;
12363;SDS011;6246;50.826;4.712;2023-03-05T00:33:12;17.13;;;12.47;;
12363;SDS011;6246;50.826;4.712;2023-03-05T00:35:39;16.47;;;12.10;;
12363;SDS011;6246;50.826;4.712;2023-03-05T00:38:06;16.37;;;11.43;;
12363;SDS011;6246;50.826;4.712;2023-03-05T00:40:34;15.63;;;11.77;;
12363;SDS011;6246;50.826;4.712;2023-03-05T00:43:00;14.57;;;10.93;;
12363;SDS011;6246;50.826;4.712;2023-03-05T00:45:26;16.00;;;10.50;;
12363;SDS011;6246;50.826;4.712;2023-03-05T00:47:52;15.40;;;10.53;;
12363;SDS011;6246;50.826;4.712;2023-03-05T00:50:18;13.30;;;10.47;;
12363;SDS011;6246;50.826;4.712;2023-03-05T00:52:44;13.57;;;10.13;;
12363;SDS011;6246;50.826;4.712;2023-03-05T00:55:10;15.87;;;10.13;;
12363;SDS011;6246;50.826;4.712;2023-03-05T00:57:36;14.27;;;10.60;;
12363;SDS011;6246;50.826;4.712;2023-03-05T01:00:03;13.57;;;9.20;;
12363;SDS011;6246;50.826;4.712;2023-03-05T01:02:30;11.67;;;9.10;;
12363;SDS011;6246;50.826;4.712;2023-03-05T01:04:56;12.30;;;8.50;;
12363;SDS011;6246;50.826;4.712;2023-03-05T01:07:22;12.23;;;8.97;;
12363;SDS011;6246;50.826;4.712;2023-03-05T01:09:48;12.00;;;8.80;;
12363;SDS011;6246;50.826;4.712;2023-03-05T01:12:14;11.57;;;8.03;;
12363;SDS011;6246;50.826;4.712;2023-03-05T01:14:40;13.13;;;9.03;;
12363;SDS011;6246;50.826;4.712;2023-03-05T01:17:06;10.97;;;7.70;;
12363;SDS011;6246;50.826;4.712;2023-03-05T01:19:32;10.03;;;7.67;;
12363;SDS011;6246;50.826;4.712;2023-03-05T01:21:58;10.17;;;7.73;;
12363;SDS011;6246;50.826;4.712;2023-03-05T01:24:24;9.77;;;7.30;;
12363;SDS011;6246;50.826;4.712;2023-03-05T01:26:50;9.90;;;7.63;;
12363;SDS011;6246;50.826;4.712;2023-03-05T01:29:16;9.63;;;7.47;;
12363;SDS011;6246;50.826;4.712;2023-03-05T01:31:42;8.67;;;6.73;;
12363;SDS011;6246;50.826;4.712;2023-03-05T01:34:08;9.80;;;6.90;;
12363;SDS011;6246;50.826;4.712;2023-03-05T01:36:34;9.27;;;6.60;;
12363;SDS011;6246;50.826;4.712;2023-03-05T01:39:00;7.97;;;6.13;;
12363;SDS011;6246;50.826;4.712;2023-03-05T01:41:26;9.33;;;6.17;;
12363;SDS011;6246;50.826;4.712;2023-03-05T01:43:52;8.03;;;6.30;;
12363;SDS011;6246;50.826;4.712;2023-03-05T01:46:29;7.63;;;6.00;;
12363;SDS011;6246;50.826;4.712;2023-03-05T01:51:25;7.60;;;6.13;;
12363;SDS011;6246;50.826;4.712;2023-03-05T01:53:53;7.27;;;5.73;;
12363;SDS011;6246;50.826;4.712;2023-03-05T01:56:19;7.93;;;5.90;;
12363;SDS011;6246;50.826;4.712;2023-03-05T01:58:46;6.90;;;5.53;;
12363;SDS011;6246;50.826;4.712;2023-03-05T02:01:12;6.73;;;5.27;;
12363;SDS011;6246;50.826;4.712;2023-03-05T02:03:38;7.83;;;5.83;;
12363;SDS011;6246;50.826;4.712;2023-03-05T02:06:05;7.70;;;5.50;;
12363;SDS011;6246;50.826;4.712;2023-03-05T02:08:31;6.40;;;5.20;;
12363;SDS011;6246;50.826;4.712;2023-03-05T02:10:57;6.70;;;4.93;;
12363;SDS011;6246;50.826;4.712;2023-03-05T02:13:28;5.83;;;4.63;;
12363;SDS011;6246;50.826;4.712;2023-03-05T02:15:56;6.53;;;4.63;;
12363;SDS011;6246;50.826;4.712;2023-03-05T02:18:23;7.57;;;4.73;;
12363;SDS011;6246;50.826;4.712;2023-03-05T02:20:50;8.57;;;4.87;;
12363;SDS011;6246;50.826;4.712;2023-03-05T02:23:18;5.47;;;4.47;;
12363;SDS011;6246;50.826;4.712;2023-03-05T02:25:45;5.43;;;4.43;;
12363;SDS011;6246;50.826;4.712;2023-03-05T02:28:14;5.70;;;4.67;;
12363;SDS011;6246;50.826;4.712;2023-03-05T02:30:41;4.80;;;4.00;;
12363;SDS011;6246;50.826;4.712;2023-03-05T02:33:07;4.70;;;4.10;;
12363;SDS011;6246;50.826;4.712;2023-03-05T02:35:33;5.33;;;3.90;;
12363;SDS011;6246;50.826;4.712;2023-03-05T02:37:59;4.67;;;4.07;;
12363;SDS011;6246;50.826;4.712;2023-03-05T02:40:25;5.47;;;4.10;;
12363;SDS011;6246;50.826;4.712;2023-03-05T02:42:51;4.70;;;3.80;;
12363;SDS011;6246;50.826;4.712;2023-03-05T02:45:17;4.93;;;4.23;;
12363;SDS011;6246;50.826;4.712;2023-03-05T02:47:43;5.67;;;3.93;;
12363;SDS011;6246;50.826;4.712;2023-03-05T02:50:10;5.50;;;3.77;;
12363;SDS011;6246;50.826;4.712;2023-03-05T02:52:36;4.20;;;3.70;;
12363;SDS011;6246;50.826;4.712;2023-03-05T02:55:02;3.93;;;3.30;;
12363;SDS011;6246;50.826;4.712;2023-03-05T02:57:29;5.43;;;3.67;;
12363;SDS011;6246;50.826;4.712;2023-03-05T02:59:55;4.63;;;3.60;;
12363;SDS011;6246;50.826;4.712;2023-03-05T03:02:21;4.37;;;3.80;;
12363;SDS011;6246;50.826;4.712;2023-03-05T03:04:47;6.43;;;3.60;;
12363;SDS011;6246;50.826;4.712;2023-03-05T03:07:13;3.70;;;3.30;;
12363;SDS011;6246;50.826;4.712;2023-03-05T03:09:39;4.03;;;3.40;;
12363;SDS011;6246;50.826;4.712;2023-03-05T03:12:07;4.43;;;3.20;;
12363;SDS011;6246;50.826;4.712;2023-03-05T03:14:34;4.70;;;3.50;;
12363;SDS011;6246;50.826;4.712;2023-03-05T03:17:03;4.00;;;3.00;;
12363;SDS011;6246;50.826;4.712;2023-03-05T03:19:29;3.30;;;2.97;;
12363;SDS011;6246;50.826;4.712;2023-03-05T03:21:55;3.87;;;3.20;;
12363;SDS011;6246;50.826;4.712;2023-03-05T03:24:22;4.73;;;3.10;;
12363;SDS011;6246;50.826;4.712;2023-03-05T03:26:48;3.47;;;2.90;;
12363;SDS011;6246;50.826;4.712;2023-03-05T03:29:14;3.37;;;3.07;;
12363;SDS011;6246;50.826;4.712;2023-03-05T03:31:41;3.63;;;3.23;;
12363;SDS011;6246;50.826;4.712;2023-03-05T03:34:09;3.30;;;2.80;;
12363;SDS011;6246;50.826;4.712;2023-03-05T03:36:35;3.40;;;2.97;;
12363;SDS011;6246;50.826;4.712;2023-03-05T03:39:01;4.33;;;3.20;;
12363;SDS011;6246;50.826;4.712;2023-03-05T03:41:29;4.83;;;2.77;;
12363;SDS011;6246;50.826;4.712;2023-03-05T03:43:56;4.30;;;3.00;;
12363;SDS011;6246;50.826;4.712;2023-03-05T03:46:22;3.43;;;3.13;;
12363;SDS011;6246;50.826;4.712;2023-03-05T03:48:51;3.00;;;2.63;;
12363;SDS011;6246;50.826;4.712;2023-03-05T03:51:17;3.57;;;2.67;;
12363;SDS011;6246;50.826;4.712;2023-03-05T03:53:43;4.00;;;2.90;;
12363;SDS011;6246;50.826;4.712;2023-03-05T03:56:09;3.20;;;2.73;;
12363;SDS011;6246;50.826;4.712;2023-03-05T03:58:35;3.27;;;2.97;;
12363;SDS011;6246;50.826;4.712;2023-03-05T04:01:01;3.03;;;2.73;;
12363;SDS011;6246;50.826;4.712;2023-03-05T04:03:27;3.97;;;2.93;;
12363;SDS011;6246;50.826;4.712;2023-03-05T04:05:53;3.47;;;2.50;;
12363;SDS011;6246;50.826;4.712;2023-03-05T04:08:19;4.27;;;3.07;;
12363;SDS011;6246;50.826;4.712;2023-03-05T04:10:45;3.63;;;2.33;;
12363;SDS011;6246;50.826;4.712;2023-03-05T04:13:11;2.80;;;2.60;;
12363;SDS011;6246;50.826;4.712;2023-03-05T04:15:37;2.90;;;2.30;;
12363;SDS011;6246;50.826;4.712;2023-03-05T04:18:03;2.93;;;2.57;;
12363;SDS011;6246;50.826;4.712;2023-03-05T04:20:29;2.77;;;2.53;;
12363;SDS011;6246;50.826;4.712;2023-03-05T04:22:55;3.37;;;2.50;;
12363;SDS011;6246;50.826;4.712;2023-03-05T04:25:21;3.17;;;2.53;;
12363;SDS011;6246;50.826;4.712;2023-03-05T04:27:47;2.90;;;2.53;;
12363;SDS011;6246;50.826;4.712;2023-03-05T04:30:13;2.60;;;2.33;;
12363;SDS011;6246;50.826;4.712;2023-03-05T04:32:39;4.53;;;2.80;;
12363;SDS011;6246;50.826;4.712;2023-03-05T04:35:06;2.70;;;2.50;;
12363;SDS011;6246;50.826;4.712;2023-03-05T04:37:32;2.77;;;2.40;;
12363;SDS011;6246;50.826;4.712;2023-03-05T04:39:58;4.17;;;2.90;;
12363;SDS011;6246;50.826;4.712;2023-03-05T04:42:24;3.80;;;2.53;;
12363;SDS011;6246;50.826;4.712;2023-03-05T04:44:50;4.97;;;2.70;;
12363;SDS011;6246;50.826;4.712;2023-03-05T04:47:16;3.67;;;2.63;;
12363;SDS011;6246;50.826;4.712;2023-03-05T04:49:43;3.27;;;2.20;;
12363;SDS011;6246;50.826;4.712;2023-03-05T04:52:10;2.87;;;2.53;;
12363;SDS011;6246;50.826;4.712;2023-03-05T04:54:36;3.53;;;2.47;;
12363;SDS011;6246;50.826;4.712;2023-03-05T04:57:02;3.43;;;2.33;;
12363;SDS011;6246;50.826;4.712;2023-03-05T04:59:28;2.40;;;2.20;;
12363;SDS011;6246;50.826;4.712;2023-03-05T05:01:54;2.73;;;2.30;;
12363;SDS011;6246;50.826;4.712;2023-03-05T05:04:20;2.63;;;2.43;;
12363;SDS011;6246;50.826;4.712;2023-03-05T05:06:46;2.60;;;2.40;;
12363;SDS011;6246;50.826;4.712;2023-03-05T05:09:12;2.83;;;2.40;;
12363;SDS011;6246;50.826;4.712;2023-03-05T05:11:39;2.50;;;2.30;;
12363;SDS011;6246;50.826;4.712;2023-03-05T05:14:05;3.43;;;2.60;;
12363;SDS011;6246;50.826;4.712;2023-03-05T05:16:31;2.80;;;2.50;;
12363;SDS011;6246;50.826;4.712;2023-03-05T05:18:57;7.53;;;2.40;;
12363;SDS011;6246;50.826;4.712;2023-03-05T05:21:23;2.10;;;2.00;;
12363;SDS011;6246;50.826;4.712;2023-03-05T05:23:49;2.90;;;2.60;;
12363;SDS011;6246;50.826;4.712;2023-03-05T05:26:15;1.97;;;1.80;;
12363;SDS011;6246;50.826;4.712;2023-03-05T05:28:42;3.97;;;2.47;;
12363;SDS011;6246;50.826;4.712;2023-03-05T05:31:09;2.73;;;2.33;;
12363;SDS011;6246;50.826;4.712;2023-03-05T05:33:35;3.43;;;2.43;;
12363;SDS011;6246;50.826;4.712;2023-03-05T05:36:05;2.93;;;2.63;;
12363;SDS011;6246;50.826;4.712;2023-03-05T05:38:31;3.03;;;2.50;;
12363;SDS011;6246;50.826;4.712;2023-03-05T05:41:04;3.77;;;2.23;;
12363;SDS011;6246;50.826;4.712;2023-03-05T05:43:30;4.00;;;2.33;;
12363;SDS011;6246;50.826;4.712;2023-03-05T05:46:00;2.47;;;2.27;;
12363;SDS011;6246;50.826;4.712;2023-03-05T05:48:27;3.80;;;2.50;;
12363;SDS011;6246;50.826;4.712;2023-03-05T05:50:54;2.63;;;2.43;;
12363;SDS011;6246;50.826;4.712;2023-03-05T05:53:20;4.70;;;2.60;;
12363;SDS011;6246;50.826;4.712;2023-03-05T05:55:46;2.67;;;2.40;;
12363;SDS011;6246;50.826;4.712;2023-03-05T05:58:12;3.37;;;2.67;;
12363;SDS011;6246;50.826;4.712;2023-03-05T06:00:38;3.57;;;2.17;;
12363;SDS011;6246;50.826;4.712;2023-03-05T06:03:04;2.67;;;2.47;;
12363;SDS011;6246;50.826;4.712;2023-03-05T06:05:30;2.40;;;2.20;;
12363;SDS011;6246;50.826;4.712;2023-03-05T06:07:56;4.40;;;2.87;;
12363;SDS011;6246;50.826;4.712;2023-03-05T06:10:22;2.60;;;2.40;;
12363;SDS011;6246;50.826;4.712;2023-03-05T06:12:48;2.50;;;2.30;;
12363;SDS011;6246;50.826;4.712;2023-03-05T06:15:14;4.23;;;2.00;;
12363;SDS011;6246;50.826;4.712;2023-03-05T06:17:40;2.20;;;2.10;;
12363;SDS011;6246;50.826;4.712;2023-03-05T06:20:07;2.47;;;2.20;;
12363;SDS011;6246;50.826;4.712;2023-03-05T06:22:37;4.00;;;2.47;;
12363;SDS011;6246;50.826;4.712;2023-03-05T06:25:04;2.17;;;1.97;;
12363;SDS011;6246;50.826;4.712;2023-03-05T06:27:31;3.73;;;2.53;;
12363;SDS011;6246;50.826;4.712;2023-03-05T06:29:57;3.23;;;2.57;;
12363;SDS011;6246;50.826;4.712;2023-03-05T06:32:23;2.80;;;2.60;;
12363;SDS011;6246;50.826;4.712;2023-03-05T06:34:49;3.50;;;2.50;;
12363;SDS011;6246;50.826;4.712;2023-03-05T06:37:15;3.23;;;2.93;;
12363;SDS011;6246;50.826;4.712;2023-03-05T06:39:42;2.83;;;2.10;;
12363;SDS011;6246;50.826;4.712;2023-03-05T06:42:08;2.87;;;2.50;;
12363;SDS011;6246;50.826;4.712;2023-03-05T06:44:38;2.40;;;2.20;;
12363;SDS011;6246;50.826;4.712;2023-03-05T06:47:04;2.50;;;2.30;;
12363;SDS011;6246;50.826;4.712;2023-03-05T06:49:30;2.37;;;2.17;;
12363;SDS011;6246;50.826;4.712;2023-03-05T06:51:57;2.50;;;2.40;;
12363;SDS011;6246;50.826;4.712;2023-03-05T06:54:23;3.40;;;2.50;;
12363;SDS011;6246;50.826;4.712;2023-03-05T06:56:49;2.37;;;2.13;;
12363;SDS011;6246;50.826;4.712;2023-03-05T06:59:15;3.00;;;2.50;;
12363;SDS011;6246;50.826;4.712;2023-03-05T07:01:42;2.50;;;2.30;;
12363;SDS011;6246;50.826;4.712;2023-03-05T07:04:09;2.63;;;2.40;;
12363;SDS011;6246;50.826;4.712;2023-03-05T07:06:36;2.50;;;2.30;;
12363;SDS011;6246;50.826;4.712;2023-03-05T07:09:03;2.33;;;2.10;;
12363;SDS011;6246;50.826;4.712;2023-03-05T07:11:29;2.77;;;2.03;;
12363;SDS011;6246;50.826;4.712;2023-03-05T07:13:55;2.53;;;2.33;;
12363;SDS011;6246;50.826;4.712;2023-03-05T07:16:23;2.83;;;2.27;;
12363;SDS011;6246;50.826;4.712;2023-03-05T07:18:49;2.00;;;1.90;;
12363;SDS011;6246;50.826;4.712;2023-03-05T07:21:22;2.80;;;2.50;;
12363;SDS011;6246;50.826;4.712;2023-03-05T07:23:48;4.03;;;2.50;;
12363;SDS011;6246;50.826;4.712;2023-03-05T07:26:15;2.73;;;2.30;;
12363;SDS011;6246;50.826;4.712;2023-03-05T07:28:41;2.87;;;2.57;;
12363;SDS011;6246;50.826;4.712;2023-03-05T07:31:09;3.97;;;2.97;;
12363;SDS011;6246;50.826;4.712;2023-03-05T07:33:35;4.13;;;2.30;;
12363;SDS011;6246;50.826;4.712;2023-03-05T07:36:02;3.07;;;2.07;;
12363;SDS011;6246;50.826;4.712;2023-03-05T07:38:29;5.57;;;2.90;;
12363;SDS011;6246;50.826;4.712;2023-03-05T07:40:55;5.37;;;2.93;;
12363;SDS011;6246;50.826;4.712;2023-03-05T07:43:21;4.10;;;2.53;;
12363;SDS011;6246;50.826;4.712;2023-03-05T07:45:47;4.40;;;2.07;;
12363;SDS011;6246;50.826;4.712;2023-03-05T07:48:15;2.87;;;2.07;;
12363;SDS011;6246;50.826;4.712;2023-03-05T07:50:41;3.33;;;2.33;;
12363;SDS011;6246;50.826;4.712;2023-03-05T07:53:07;8.03;;;3.13;;
12363;SDS011;6246;50.826;4.712;2023-03-05T07:55:33;7.07;;;3.43;;
12363;SDS011;6246;50.826;4.712;2023-03-05T07:58:00;5.50;;;3.43;;
12363;SDS011;6246;50.826;4.712;2023-03-05T08:00:25;3.83;;;3.07;;
12363;SDS011;6246;50.826;4.712;2023-03-05T08:02:51;5.37;;;3.37;;
12363;SDS011;6246;50.826;4.712;2023-03-05T08:05:17;4.53;;;3.30;;
12363;SDS011;6246;50.826;4.712;2023-03-05T08:07:44;5.10;;;3.10;;
12363;SDS011;6246;50.826;4.712;2023-03-05T08:10:10;4.80;;;3.63;;
12363;SDS011;6246;50.826;4.712;2023-03-05T08:12:36;5.77;;;3.33;;
12363;SDS011;6246;50.826;4.712;2023-03-05T08:15:02;4.37;;;3.57;;
12363;SDS011;6246;50.826;4.712;2023-03-05T08:17:28;6.33;;;3.47;;
12363;SDS011;6246;50.826;4.712;2023-03-05T08:19:54;4.10;;;3.57;;
12363;SDS011;6246;50.826;4.712;2023-03-05T08:22:23;6.87;;;4.00;;
12363;SDS011;6246;50.826;4.712;2023-03-05T08:24:49;4.17;;;3.73;;
12363;SDS011;6246;50.826;4.712;2023-03-05T08:27:16;4.43;;;3.60;;
12363;SDS011;6246;50.826;4.712;2023-03-05T08:29:42;8.43;;;4.07;;
12363;SDS011;6246;50.826;4.712;2023-03-05T08:32:08;5.40;;;3.73;;
12363;SDS011;6246;50.826;4.712;2023-03-05T08:34:34;6.80;;;4.60;;
12363;SDS011;6246;50.826;4.712;2023-03-05T08:37:00;7.90;;;4.40;;
12363;SDS011;6246;50.826;4.712;2023-03-05T08:39:26;8.10;;;4.43;;
12363;SDS011;6246;50.826;4.712;2023-03-05T08:41:54;5.97;;;3.90;;
12363;SDS011;6246;50.826;4.712;2023-03-05T08:44:20;5.13;;;3.97;;
12363;SDS011;6246;50.826;4.712;2023-03-05T08:46:46;6.43;;;4.23;;
12363;SDS011;6246;50.826;4.712;2023-03-05T08:49:12;5.03;;;3.93;;
12363;SDS011;6246;50.826;4.712;2023-03-05T08:51:38;5.87;;;4.10;;
12363;SDS011;6246;50.826;4.712;2023-03-05T08:54:04;5.63;;;3.60;;
12363;SDS011;6246;50.826;4.712;2023-03-05T08:56:32;6.47;;;4.33;;
12363;SDS011;6246;50.826;4.712;2023-03-05T08:58:58;8.60;;;4.37;;
12363;SDS011;6246;50.826;4.712;2023-03-05T09:01:24;6.13;;;4.30;;
12363;SDS011;6246;50.826;4.712;2023-03-05T09:03:51;6.47;;;4.50;;
12363;SDS011;6246;50.826;4.712;2023-03-05T09:06:18;9.80;;;4.97;;
12363;SDS011;6246;50.826;4.712;2023-03-05T09:08:44;7.47;;;4.50;;
12363;SDS011;6246;50.826;4.712;2023-03-05T09:11:10;5.77;;;4.53;;
12363;SDS011;6246;50.826;4.712;2023-03-05T09:13:37;6.57;;;5.00;;
12363;SDS011;6246;50.826;4.712;2023-03-05T09:16:04;5.67;;;4.37;;
12363;SDS011;6246;50.826;4.712;2023-03-05T09:18:31;7.70;;;5.17;;
12363;SDS011;6246;50.826;4.712;2023-03-05T09:21:02;7.47;;;5.17;;
12363;SDS011;6246;50.826;4.712;2023-03-05T09:23:28;8.17;;;4.90;;
12363;SDS011;6246;50.826;4.712;2023-03-05T09:25:54;8.30;;;4.83;;
12363;SDS011;6246;50.826;4.712;2023-03-05T09:28:20;7.63;;;5.00;;
12363;SDS011;6246;50.826;4.712;2023-03-05T09:30:46;7.10;;;4.50;;
12363;SDS011;6246;50.826;4.712;2023-03-05T09:33:12;7.97;;;5.10;;
12363;SDS011;6246;50.826;4.712;2023-03-05T09:35:38;6.13;;;4.60;;
12363;SDS011;6246;50.826;4.712;2023-03-05T09:38:05;7.63;;;4.90;;
12363;SDS011;6246;50.826;4.712;2023-03-05T09:40:54;5.83;;;4.87;;
12363;SDS011;6246;50.826;4.712;2023-03-05T09:45:45;5.87;;;4.50;;
12363;SDS011;6246;50.826;4.712;2023-03-05T09:48:19;6.17;;;4.90;;
12363;SDS011;6246;50.826;4.712;2023-03-05T09:50:51;6.77;;;5.13;;
12363;SDS011;6246;50.826;4.712;2023-03-05T09:55:54;7.43;;;4.50;;
12363;SDS011;6246;50.826;4.712;2023-03-05T09:58:24;6.47;;;4.77;;
12363;SDS011;6246;50.826;4.712;2023-03-05T10:00:56;13.03;;;5.47;;
12363;SDS011;6246;50.826;4.712;2023-03-05T10:06:35;26.03;;;6.20;;
12363;SDS011;6246;50.826;4.712;2023-03-05T10:08:47;20.47;;;5.80;;
12363;SDS011;6246;50.826;4.712;2023-03-05T10:11:38;17.40;;;5.10;;
12363;SDS011;6246;50.826;4.712;2023-03-05T10:14:02;9.57;;;4.83;;
12363;SDS011;6246;50.826;4.712;2023-03-05T10:19:00;15.23;;;6.90;;
12363;SDS011;6246;50.826;4.712;2023-03-05T10:21:27;11.80;;;7.80;;
12363;SDS011;6246;50.826;4.712;2023-03-05T10:24:02;15.37;;;8.43;;
12363;SDS011;6246;50.826;4.712;2023-03-05T10:26:41;15.03;;;8.40;;
12363;SDS011;6246;50.826;4.712;2023-03-05T10:34:11;19.10;;;12.50;;
12363;SDS011;6246;50.826;4.712;2023-03-05T10:42:09;17.70;;;10.90;;
12363;SDS011;6246;50.826;4.712;2023-03-05T10:44:40;16.20;;;9.87;;
12363;SDS011;6246;50.826;4.712;2023-03-05T10:47:14;16.90;;;10.03;;
12363;SDS011;6246;50.826;4.712;2023-03-05T10:49:47;12.93;;;9.17;;
12363;SDS011;6246;50.826;4.712;2023-03-05T10:54:49;16.33;;;9.17;;
12363;SDS011;6246;50.826;4.712;2023-03-05T10:57:20;13.50;;;8.40;;
12363;SDS011;6246;50.826;4.712;2023-03-05T10:59:48;11.20;;;8.60;;
12363;SDS011;6246;50.826;4.712;2023-03-05T11:02:15;13.97;;;8.33;;
12363;SDS011;6246;50.826;4.712;2023-03-05T11:04:41;13.20;;;8.73;;
12363;SDS011;6246;50.826;4.712;2023-03-05T11:09:33;11.97;;;7.90;;
12363;SDS011;6246;50.826;4.712;2023-03-05T11:12:13;10.83;;;7.10;;
12363;SDS011;6246;50.826;4.712;2023-03-05T11:14:46;10.73;;;7.20;;
12363;SDS011;6246;50.826;4.712;2023-03-05T11:17:36;10.63;;;7.23;;
12363;SDS011;6246;50.826;4.712;2023-03-05T11:25:32;9.20;;;6.50;;
12363;SDS011;6246;50.826;4.712;2023-03-05T11:27:59;10.57;;;6.50;;
12363;SDS011;6246;50.826;4.712;2023-03-05T11:30:26;11.47;;;6.80;;
12363;SDS011;6246;50.826;4.712;2023-03-05T11:33:07;18.30;;;6.30;;
12363;SDS011;6246;50.826;4.712;2023-03-05T11:35:34;11.40;;;6.23;;
12363;SDS011;6246;50.826;4.712;2023-03-05T11:38:04;9.43;;;6.20;;
12363;SDS011;6246;50.826;4.712;2023-03-05T11:40:31;9.43;;;5.93;;
12363;SDS011;6246;50.826;4.712;2023-03-05T11:42:59;8.23;;;6.10;;
12363;SDS011;6246;50.826;4.712;2023-03-05T11:45:27;7.80;;;5.50;;
12363;SDS011;6246;50.826;4.712;2023-03-05T11:47:57;9.27;;;5.60;;
12363;SDS011;6246;50.826;4.712;2023-03-05T11:50:29;9.40;;;5.53;;
12363;SDS011;6246;50.826;4.712;2023-03-05T11:53:06;8.33;;;5.70;;
12363;SDS011;6246;50.826;4.712;2023-03-05T11:55:45;8.13;;;5.30;;
12363;SDS011;6246;50.826;4.712;2023-03-05T11:58:31;6.97;;;5.03;;
12363;SDS011;6246;50.826;4.712;2023-03-05T12:00:59;6.80;;;4.90;;
12363;SDS011;6246;50.826;4.712;2023-03-05T12:03:35;6.03;;;5.10;;
12363;SDS011;6246;50.826;4.712;2023-03-05T12:08:32;6.57;;;5.13;;
12363;SDS011;6246;50.826;4.712;2023-03-05T12:11:00;8.13;;;5.60;;
12363;SDS011;6246;50.826;4.712;2023-03-05T12:21:01;8.80;;;5.20;;
12363;SDS011;6246;50.826;4.712;2023-03-05T12:23:28;5.97;;;4.50;;
12363;SDS011;6246;50.826;4.712;2023-03-05T12:26:08;8.97;;;4.97;;
12363;SDS011;6246;50.826;4.712;2023-03-05T12:31:01;7.00;;;4.63;;
12363;SDS011;6246;50.826;4.712;2023-03-05T12:33:42;6.80;;;4.60;;
12363;SDS011;6246;50.826;4.712;2023-03-05T12:46:39;5.77;;;4.03;;
12363;SDS011;6246;50.826;4.712;2023-03-05T12:51:48;5.07;;;4.43;;
12363;SDS011;6246;50.826;4.712;2023-03-05T12:56:49;4.63;;;3.80;;
12363;SDS011;6246;50.826;4.712;2023-03-05T12:59:17;4.40;;;3.70;;
12363;SDS011;6246;50.826;4.712;2023-03-05T13:01:45;4.60;;;3.70;;
12363;SDS011;6246;50.826;4.712;2023-03-05T13:04:16;4.17;;;3.77;;
12363;SDS011;6246;50.826;4.712;2023-03-05T13:06:45;4.43;;;3.53;;
12363;SDS011;6246;50.826;4.712;2023-03-05T13:09:15;3.70;;;3.40;;
12363;SDS011;6246;50.826;4.712;2023-03-05T13:11:42;3.77;;;3.47;;
12363;SDS011;6246;50.826;4.712;2023-03-05T13:19:49;4.60;;;3.50;;
12363;SDS011;6246;50.826;4.712;2023-03-05T13:22:15;4.43;;;3.77;;
12363;SDS011;6246;50.826;4.712;2023-03-05T13:24:41;3.90;;;3.50;;
12363;SDS011;6246;50.826;4.712;2023-03-05T13:27:29;4.03;;;3.40;;
12363;SDS011;6246;50.826;4.712;2023-03-05T13:29:55;3.17;;;2.87;;
12363;SDS011;6246;50.826;4.712;2023-03-05T13:32:24;3.20;;;2.90;;
12363;SDS011;6246;50.826;4.712;2023-03-05T13:34:50;3.47;;;3.17;;
12363;SDS011;6246;50.826;4.712;2023-03-05T13:37:19;3.60;;;3.30;;
12363;SDS011;6246;50.826;4.712;2023-03-05T13:39:49;3.23;;;2.93;;
12363;SDS011;6246;50.826;4.712;2023-03-05T13:42:17;3.90;;;2.90;;
12363;SDS011;6246;50.826;4.712;2023-03-05T13:44:52;3.40;;;3.10;;
12363;SDS011;6246;50.826;4.712;2023-03-05T13:47:20;3.33;;;3.03;;
12363;SDS011;6246;50.826;4.712;2023-03-05T13:49:53;3.50;;;3.20;;
12363;SDS011;6246;50.826;4.712;2023-03-05T13:52:23;3.33;;;3.00;;
12363;SDS011;6246;50.826;4.712;2023-03-05T13:54:49;3.20;;;2.90;;
12363;SDS011;6246;50.826;4.712;2023-03-05T13:57:37;3.40;;;2.90;;
12363;SDS011;6246;50.826;4.712;2023-03-05T14:00:03;2.90;;;2.60;;
12363;SDS011;6246;50.826;4.712;2023-03-05T14:02:29;3.30;;;2.77;;
12363;SDS011;6246;50.826;4.712;2023-03-05T14:04:56;3.10;;;2.87;;
12363;SDS011;6246;50.826;4.712;2023-03-05T14:09:51;3.00;;;2.80;;
12363;SDS011;6246;50.826;4.712;2023-03-05T14:14:43;3.73;;;2.63;;
12363;SDS011;6246;50.826;4.712;2023-03-05T14:17:19;3.90;;;2.60;;
12363;SDS011;6246;50.826;4.712;2023-03-05T14:19:46;2.80;;;2.50;;
12363;SDS011;6246;50.826;4.712;2023-03-05T14:22:33;2.83;;;2.63;;
12363;SDS011;6246;50.826;4.712;2023-03-05T14:24:59;2.80;;;2.57;;
12363;SDS011;6246;50.826;4.712;2023-03-05T14:27:25;2.30;;;2.20;;
12363;SDS011;6246;50.826;4.712;2023-03-05T14:29:53;2.83;;;2.40;;
12363;SDS011;6246;50.826;4.712;2023-03-05T14:32:24;2.60;;;2.40;;
12363;SDS011;6246;50.826;4.712;2023-03-05T14:34:54;3.07;;;2.77;;
12363;SDS011;6246;50.826;4.712;2023-03-05T14:37:23;3.17;;;2.47;;
12363;SDS011;6246;50.826;4.712;2023-03-05T14:39:50;2.87;;;2.57;;
12363;SDS011;6246;50.826;4.712;2023-03-05T14:42:24;2.60;;;2.40;;
12363;SDS011;6246;50.826;4.712;2023-03-05T14:44:50;2.40;;;2.30;;
12363;SDS011;6246;50.826;4.712;2023-03-05T14:47:16;2.60;;;2.40;;
12363;SDS011;6246;50.826;4.712;2023-03-05T14:49:42;2.33;;;2.10;;
12363;SDS011;6246;50.826;4.712;2023-03-05T14:52:12;2.60;;;2.40;;
12363;SDS011;6246;50.826;4.712;2023-03-05T14:54:39;8.77;;;2.43;;
12363;SDS011;6246;50.826;4.712;2023-03-05T14:57:05;2.93;;;2.33;;
12363;SDS011;6246;50.826;4.712;2023-03-05T14:59:31;6.10;;;2.27;;
12363;SDS011;6246;50.826;4.712;2023-03-05T15:01:57;2.27;;;2.00;;
12363;SDS011;6246;50.826;4.712;2023-03-05T15:04:23;2.40;;;2.20;;
12363;SDS011;6246;50.826;4.712;2023-03-05T15:06:49;4.03;;;2.63;;
12363;SDS011;6246;50.826;4.712;2023-03-05T15:09:17;2.43;;;2.23;;
12363;SDS011;6246;50.826;4.712;2023-03-05T15:11:45;2.20;;;2.00;;
12363;SDS011;6246;50.826;4.712;2023-03-05T15:14:11;2.40;;;2.20;;
12363;SDS011;6246;50.826;4.712;2023-03-05T15:16:38;2.00;;;1.90;;
12363;SDS011;6246;50.826;4.712;2023-03-05T15:19:08;1.97;;;1.77;;
12363;SDS011;6246;50.826;4.712;2023-03-05T15:21:36;2.30;;;2.10;;
12363;SDS011;6246;50.826;4.712;2023-03-05T15:24:02;2.33;;;2.13;;
12363;SDS011;6246;50.826;4.712;2023-03-05T15:26:28;2.60;;;2.40;;
12363;SDS011;6246;50.826;4.712;2023-03-05T15:28:54;3.57;;;2.37;;
12363;SDS011;6246;50.826;4.712;2023-03-05T15:31:20;3.03;;;2.07;;
12363;SDS011;6246;50.826;4.712;2023-03-05T15:33:46;4.47;;;2.03;;
12363;SDS011;6246;50.826;4.712;2023-03-05T15:36:12;2.43;;;2.10;;
12363;SDS011;6246;50.826;4.712;2023-03-05T15:38:38;2.40;;;2.20;;
12363;SDS011;6246;50.826;4.712;2023-03-05T15:41:05;2.53;;;1.73;;
12363;SDS011;6246;50.826;4.712;2023-03-05T15:43:31;2.50;;;2.30;;
12363;SDS011;6246;50.826;4.712;2023-03-05T15:45:57;5.77;;;2.00;;
12363;SDS011;6246;50.826;4.712;2023-03-05T15:48:23;1.87;;;1.77;;
12363;SDS011;6246;50.826;4.712;2023-03-05T15:50:49;2.90;;;1.87;;
12363;SDS011;6246;50.826;4.712;2023-03-05T15:53:15;1.73;;;1.63;;
12363;SDS011;6246;50.826;4.712;2023-03-05T15:55:42;1.53;;;1.43;;
12363;SDS011;6246;50.826;4.712;2023-03-05T15:58:08;4.67;;;2.20;;
12363;SDS011;6246;50.826;4.712;2023-03-05T16:00:37;3.17;;;2.00;;
12363;SDS011;6246;50.826;4.712;2023-03-05T16:03:04;6.37;;;2.17;;
12363;SDS011;6246;50.826;4.712;2023-03-05T16:05:32;4.10;;;1.70;;
12363;SDS011;6246;50.826;4.712;2023-03-05T16:07:58;2.57;;;2.07;;
12363;SDS011;6246;50.826;4.712;2023-03-05T16:10:25;1.83;;;1.50;;
12363;SDS011;6246;50.826;4.712;2023-03-05T16:12:54;3.70;;;1.97;;